METAR TAF : Ljubljana Jože Pučnik Airport, Ljubljana Slovenia
The Athletes Foot je globalna veriga trendy obutve in oblačil, prisotna v več kot 30 državah po svetu. Poišči noro ponudbo sneakers modelov in najnovejše trende blagovnih znamk ADIDAS, NIKE, NEW BALANCE, PUMA, REEBOK, VANS in še mnogo drugih. Izberi svoj stil v The Athletes Foot!
METAR TAF : Portorož Airport, Portorož Slovenia
The Athletes Foot je globalna veriga trendy obutve in oblačil, prisotna v več kot 30 državah po svetu. Poišči noro ponudbo sneakers modelov in najnovejše trende blagovnih znamk ADIDAS, NIKE, NEW BALANCE, PUMA, REEBOK, VANS in še mnogo drugih. Izberi svoj stil v The Athletes Foot!
METAR TAF : Cerklje ob Krki Eslovenia
taf slovenija
TAF: LQSA 071100Z 0712/0812 VRB02KT 9999 SCT040 TX08/0713Z TNM00/0806Z TEMPO 0723/0812 3000 -RA BR BKN010 PROB30 TEMPO 0800/0811 0600 SN VV003 Weather observations and forecasts of more than 4000 airports (METAR and TAF reports). The available stations are represented by yellow and red dots on the map.
MOŠKO | TAF
taf slovenija
TAF: LJCE 062000Z 0621/0706 25004KT 2500 BR OVC003 PROB30 TEMPO 0621/0706 5000 BKN005 TEMPO 0622/0706 0300 FZFG VV001 Weather observations and forecasts of more than 4000 airports (METAR and TAF reports). The available stations are represented by yellow and red dots on the map.
Nova dimenzija urbanog stila - provjeri i kupi …
The Athletes Foot je globalna veriga trendy obutve in oblačil, prisotna v več kot 30 državah po svetu. Poišči noro ponudbo sneakers modelov in najnovejše trende blagovnih znamk ADIDAS, NIKE, NEW BALANCE, PUMA, REEBOK, VANS in še mnogo drugih. Izberi svoj stil v The Athletes Foot!
METAR TAF : Cerklje ob Krki Airport, Cerklje ob Krki Slovenia
The Athlete´s Foot je globalni modno sportski brend prisutan u više od 30 zemalja diljem svijeta. Svojom ponudom trendy modne obuće i odjeće diktira urbane trendove na hrvatskom tržištu unazad godinu dana. Potraži ludu ponudu najnovijih Sneakers modela kao i ekskluzivne linije odjeće poznatih robnih marki ADIDAS, NIKE, PUMA, REEBOK i još mnogo drugih.
Nova dimenzija urbanega stila - nakupuj ONLINE! | …
TAF: LJPZ 261700Z 2618/2703 06012G22KT CAVOK Observaciones y pronósticos meteorológicos de más de 4000 aeropuertos (mensajes METAR y TAF). Los puntos amarillos y rojos representan las estaciones disponibles. Ponga el ratón en el punto deseado para ver el nombre de la estación.
METAR TAF : Trieste – Friuli Venezia Giulia Airport
The Athletes Foot je globalna veriga trendy obutve in oblačil, prisotna v več kot 30 državah po svetu. Poišči noro ponudbo sneakers modelov in najnovejše trende blagovnih znamk ADIDAS, NIKE, NEW BALANCE, PUMA, REEBOK, VANS in še mnogo drugih. Izberi svoj stil v The Athletes Foot!
ZNAMKE | TAF
The Athletes Foot je globalna veriga trendy obutve in oblačil, prisotna v več kot 30 državah po svetu. Poišči noro ponudbo sneakers modelov in najnovejše trende blagovnih znamk ADIDAS, NIKE, NEW BALANCE, PUMA, REEBOK, VANS in še mnogo drugih. Izberi svoj stil v The Athletes Foot!
METAR TAF : Ljubljana Jože Pučnik Airport, Ljubljana Slovenia
The Athletes Foot je globalna veriga trendy obutve in oblačil, prisotna v več kot 30 državah po svetu. Poišči noro ponudbo sneakers modelov in najnovejše trende blagovnih znamk ADIDAS, NIKE, NEW BALANCE, PUMA, REEBOK, VANS in še mnogo drugih. Izberi svoj stil v The Athletes Foot!
METAR TAF : Eslovenia, Croacia, Bosnia y …
taf slovenija
TAF: LJLJ 100500Z 1006/1106 VRB02KT 9999 BKN050 PROB30 TEMPO 1009/1018 -SN Weather observations and forecasts of more than 4000 airports (METAR and TAF reports). The available stations are represented by yellow and red dots on the map. Hover mouse over dot to see the name of the station.
TAF | TAF
The Athletes Foot Slovenia. 13,044 likes · 154 talking about this · 24 were here. Uradna stran znamke The Athletes Foot v Sloveniji.

lucydisfrutaconloslacteos.es

Taf slovenija

Con la puesta en marcha de este programa se pretende:

OK

|
Más información